sensor_id;sensor_type;location;lat;lon;timestamp;temperature;humidity
52471;DHT22;38382;53.160;7.026;2022-11-04T00:01:43;11.10;99.90
52471;DHT22;38382;53.160;7.026;2022-11-04T00:04:10;11.10;99.90
52471;DHT22;38382;53.160;7.026;2022-11-04T00:06:37;11.10;99.90
52471;DHT22;38382;53.160;7.026;2022-11-04T00:09:05;11.10;99.90
52471;DHT22;38382;53.160;7.026;2022-11-04T00:11:31;11.10;99.90
52471;DHT22;38382;53.160;7.026;2022-11-04T00:14:17;11.10;99.90
52471;DHT22;38382;53.160;7.026;2022-11-04T00:16:44;11.10;99.90
52471;DHT22;38382;53.160;7.026;2022-11-04T00:19:29;11.20;99.90
52471;DHT22;38382;53.160;7.026;2022-11-04T00:22:14;11.10;99.90
52471;DHT22;38382;53.160;7.026;2022-11-04T00:24:58;11.10;99.90
52471;DHT22;38382;53.160;7.026;2022-11-04T00:27:24;11.10;99.90
52471;DHT22;38382;53.160;7.026;2022-11-04T00:30:09;11.10;99.90
52471;DHT22;38382;53.160;7.026;2022-11-04T00:32:35;11.10;99.90
52471;DHT22;38382;53.160;7.026;2022-11-04T00:35:20;11.10;99.90
52471;DHT22;38382;53.160;7.026;2022-11-04T00:37:46;11.10;99.90
52471;DHT22;38382;53.160;7.026;2022-11-04T00:40:14;11.20;99.90
52471;DHT22;38382;53.160;7.026;2022-11-04T00:42:43;11.20;99.90
52471;DHT22;38382;53.160;7.026;2022-11-04T00:45:10;11.10;99.90
52471;DHT22;38382;53.160;7.026;2022-11-04T00:47:35;11.10;99.90
52471;DHT22;38382;53.160;7.026;2022-11-04T00:50:01;11.10;99.90
52471;DHT22;38382;53.160;7.026;2022-11-04T00:52:27;11.10;99.90
52471;DHT22;38382;53.160;7.026;2022-11-04T00:54:52;11.10;99.90
52471;DHT22;38382;53.160;7.026;2022-11-04T00:57:18;11.00;99.90
52471;DHT22;38382;53.160;7.026;2022-11-04T00:59:44;11.10;99.90
52471;DHT22;38382;53.160;7.026;2022-11-04T01:02:11;11.00;99.90
52471;DHT22;38382;53.160;7.026;2022-11-04T01:04:37;11.10;99.90
52471;DHT22;38382;53.160;7.026;2022-11-04T01:07:03;11.10;99.90
52471;DHT22;38382;53.160;7.026;2022-11-04T01:09:29;11.00;99.90
52471;DHT22;38382;53.160;7.026;2022-11-04T01:11:54;11.00;99.90
52471;DHT22;38382;53.160;7.026;2022-11-04T01:14:21;11.10;99.90
52471;DHT22;38382;53.160;7.026;2022-11-04T01:16:48;11.00;99.90
52471;DHT22;38382;53.160;7.026;2022-11-04T01:19:14;11.10;99.90
52471;DHT22;38382;53.160;7.026;2022-11-04T01:21:40;11.10;99.90
52471;DHT22;38382;53.160;7.026;2022-11-04T01:24:06;11.00;99.90
52471;DHT22;38382;53.160;7.026;2022-11-04T01:26:31;11.00;99.90
52471;DHT22;38382;53.160;7.026;2022-11-04T01:28:57;11.00;99.90
52471;DHT22;38382;53.160;7.026;2022-11-04T01:31:26;11.00;99.90
52471;DHT22;38382;53.160;7.026;2022-11-04T01:33:53;11.00;99.90
52471;DHT22;38382;53.160;7.026;2022-11-04T01:36:20;11.00;99.90
52471;DHT22;38382;53.160;7.026;2022-11-04T01:38:47;11.00;99.90
52471;DHT22;38382;53.160;7.026;2022-11-04T01:41:33;11.00;99.90
52471;DHT22;38382;53.160;7.026;2022-11-04T01:47:03;10.80;99.90
52471;DHT22;38382;53.160;7.026;2022-11-04T01:49:35;10.80;99.90
52471;DHT22;38382;53.160;7.026;2022-11-04T01:52:12;10.80;99.90
52471;DHT22;38382;53.160;7.026;2022-11-04T01:54:40;10.70;99.90
52471;DHT22;38382;53.160;7.026;2022-11-04T01:57:09;10.70;99.90
52471;DHT22;38382;53.160;7.026;2022-11-04T01:59:38;10.70;99.90
52471;DHT22;38382;53.160;7.026;2022-11-04T02:02:05;10.70;99.90
52471;DHT22;38382;53.160;7.026;2022-11-04T02:04:32;10.70;99.90
52471;DHT22;38382;53.160;7.026;2022-11-04T02:07:06;10.60;99.90
52471;DHT22;38382;53.160;7.026;2022-11-04T02:09:34;10.60;99.90
52471;DHT22;38382;53.160;7.026;2022-11-04T02:12:00;10.60;99.90
52471;DHT22;38382;53.160;7.026;2022-11-04T02:14:47;10.60;99.90
52471;DHT22;38382;53.160;7.026;2022-11-04T02:31:12;10.50;99.90
52471;DHT22;38382;53.160;7.026;2022-11-04T02:36:47;10.50;99.90
52471;DHT22;38382;53.160;7.026;2022-11-04T02:39:21;10.50;99.90
52471;DHT22;38382;53.160;7.026;2022-11-04T02:41:56;10.50;99.90
52471;DHT22;38382;53.160;7.026;2022-11-04T02:47:12;10.40;99.90
52471;DHT22;38382;53.160;7.026;2022-11-04T02:49:46;10.40;99.90
52471;DHT22;38382;53.160;7.026;2022-11-04T02:52:29;10.40;99.90
52471;DHT22;38382;53.160;7.026;2022-11-04T02:55:02;10.40;99.90
52471;DHT22;38382;53.160;7.026;2022-11-04T02:57:33;10.40;99.90
52471;DHT22;38382;53.160;7.026;2022-11-04T03:00:11;10.40;99.90
52471;DHT22;38382;53.160;7.026;2022-11-04T03:02:45;10.40;99.90
52471;DHT22;38382;53.160;7.026;2022-11-04T03:05:16;10.40;99.90
52471;DHT22;38382;53.160;7.026;2022-11-04T03:07:46;10.40;99.90
52471;DHT22;38382;53.160;7.026;2022-11-04T03:10:21;10.40;99.90
52471;DHT22;38382;53.160;7.026;2022-11-04T03:12:56;10.40;99.90
52471;DHT22;38382;53.160;7.026;2022-11-04T03:15:28;10.40;99.90
52471;DHT22;38382;53.160;7.026;2022-11-04T03:18:00;10.40;99.90
52471;DHT22;38382;53.160;7.026;2022-11-04T03:20:29;10.40;99.90
52471;DHT22;38382;53.160;7.026;2022-11-04T03:22:57;10.40;99.90
52471;DHT22;38382;53.160;7.026;2022-11-04T03:25:32;10.40;99.90
52471;DHT22;38382;53.160;7.026;2022-11-04T03:30:42;10.40;99.90
52471;DHT22;38382;53.160;7.026;2022-11-04T03:33:22;10.40;99.90
52471;DHT22;38382;53.160;7.026;2022-11-04T03:35:49;10.40;99.90
52471;DHT22;38382;53.160;7.026;2022-11-04T03:38:15;10.40;99.90
52471;DHT22;38382;53.160;7.026;2022-11-04T03:40:41;10.40;99.90
52471;DHT22;38382;53.160;7.026;2022-11-04T03:43:22;10.40;99.90
52471;DHT22;38382;53.160;7.026;2022-11-04T03:45:50;10.40;99.90
52471;DHT22;38382;53.160;7.026;2022-11-04T03:48:16;10.40;99.90
52471;DHT22;38382;53.160;7.026;2022-11-04T03:50:43;10.40;99.90
52471;DHT22;38382;53.160;7.026;2022-11-04T03:53:13;10.40;99.90
52471;DHT22;38382;53.160;7.026;2022-11-04T04:01:35;10.30;99.90
52471;DHT22;38382;53.160;7.026;2022-11-04T04:04:13;10.30;99.90
52471;DHT22;38382;53.160;7.026;2022-11-04T04:06:42;10.30;99.90
52471;DHT22;38382;53.160;7.026;2022-11-04T04:09:29;10.30;99.90
52471;DHT22;38382;53.160;7.026;2022-11-04T04:12:11;10.20;99.90
52471;DHT22;38382;53.160;7.026;2022-11-04T04:14:51;10.30;99.90
52471;DHT22;38382;53.160;7.026;2022-11-04T04:20:13;10.20;99.90
52471;DHT22;38382;53.160;7.026;2022-11-04T04:23:02;10.20;99.90
52471;DHT22;38382;53.160;7.026;2022-11-04T04:25:51;10.20;99.90
52471;DHT22;38382;53.160;7.026;2022-11-04T04:28:36;10.20;99.90
52471;DHT22;38382;53.160;7.026;2022-11-04T04:31:03;10.20;99.90
52471;DHT22;38382;53.160;7.026;2022-11-04T04:33:29;10.20;99.90
52471;DHT22;38382;53.160;7.026;2022-11-04T04:35:56;10.20;99.90
52471;DHT22;38382;53.160;7.026;2022-11-04T04:38:27;10.90;99.90
52471;DHT22;38382;53.160;7.026;2022-11-04T04:43:41;10.20;99.90
52471;DHT22;38382;53.160;7.026;2022-11-04T04:46:28;10.20;99.90
52471;DHT22;38382;53.160;7.026;2022-11-04T04:48:54;10.20;99.90
52471;DHT22;38382;53.160;7.026;2022-11-04T04:51:20;10.20;99.90
52471;DHT22;38382;53.160;7.026;2022-11-04T04:53:46;10.20;99.90
52471;DHT22;38382;53.160;7.026;2022-11-04T04:56:12;10.20;99.90
52471;DHT22;38382;53.160;7.026;2022-11-04T04:58:37;10.20;99.90
52471;DHT22;38382;53.160;7.026;2022-11-04T05:01:03;10.20;99.90
52471;DHT22;38382;53.160;7.026;2022-11-04T05:03:29;10.20;99.90
52471;DHT22;38382;53.160;7.026;2022-11-04T05:05:58;10.20;99.90
52471;DHT22;38382;53.160;7.026;2022-11-04T05:08:24;10.10;99.90
52471;DHT22;38382;53.160;7.026;2022-11-04T05:10:50;10.10;99.90
52471;DHT22;38382;53.160;7.026;2022-11-04T05:13:15;10.10;99.90
52471;DHT22;38382;53.160;7.026;2022-11-04T05:16:01;10.10;99.90
52471;DHT22;38382;53.160;7.026;2022-11-04T05:18:27;10.00;99.90
52471;DHT22;38382;53.160;7.026;2022-11-04T05:20:53;10.00;99.90
52471;DHT22;38382;53.160;7.026;2022-11-04T05:23:19;10.00;99.90
52471;DHT22;38382;53.160;7.026;2022-11-04T05:25:45;10.00;99.90
52471;DHT22;38382;53.160;7.026;2022-11-04T05:28:10;10.00;99.90
52471;DHT22;38382;53.160;7.026;2022-11-04T05:30:36;10.00;99.90
52471;DHT22;38382;53.160;7.026;2022-11-04T05:33:02;10.00;99.90
52471;DHT22;38382;53.160;7.026;2022-11-04T05:35:27;10.00;99.90
52471;DHT22;38382;53.160;7.026;2022-11-04T05:37:54;9.90;99.90
52471;DHT22;38382;53.160;7.026;2022-11-04T05:40:21;9.90;99.90
52471;DHT22;38382;53.160;7.026;2022-11-04T05:42:47;9.90;99.90
52471;DHT22;38382;53.160;7.026;2022-11-04T05:45:13;9.90;99.90
52471;DHT22;38382;53.160;7.026;2022-11-04T05:47:38;9.90;99.90
52471;DHT22;38382;53.160;7.026;2022-11-04T05:50:05;9.80;99.90
52471;DHT22;38382;53.160;7.026;2022-11-04T05:52:31;9.80;99.90
52471;DHT22;38382;53.160;7.026;2022-11-04T05:54:56;9.80;99.90
52471;DHT22;38382;53.160;7.026;2022-11-04T05:57:22;9.70;99.90
52471;DHT22;38382;53.160;7.026;2022-11-04T05:59:48;9.70;99.90
52471;DHT22;38382;53.160;7.026;2022-11-04T06:02:13;9.60;99.90
52471;DHT22;38382;53.160;7.026;2022-11-04T06:04:39;9.60;99.90
52471;DHT22;38382;53.160;7.026;2022-11-04T06:07:05;9.60;99.90
52471;DHT22;38382;53.160;7.026;2022-11-04T06:09:31;9.50;99.90
52471;DHT22;38382;53.160;7.026;2022-11-04T06:12:11;9.50;99.90
52471;DHT22;38382;53.160;7.026;2022-11-04T06:14:43;9.40;99.90
52471;DHT22;38382;53.160;7.026;2022-11-04T06:17:14;9.40;99.90
52471;DHT22;38382;53.160;7.026;2022-11-04T06:19:40;9.40;99.90
52471;DHT22;38382;53.160;7.026;2022-11-04T06:22:08;9.40;99.90
52471;DHT22;38382;53.160;7.026;2022-11-04T06:24:35;9.40;99.90
52471;DHT22;38382;53.160;7.026;2022-11-04T06:27:00;9.40;99.90
52471;DHT22;38382;53.160;7.026;2022-11-04T06:29:32;9.20;99.90
52471;DHT22;38382;53.160;7.026;2022-11-04T06:31:58;9.20;99.90
52471;DHT22;38382;53.160;7.026;2022-11-04T06:34:24;9.20;99.90
52471;DHT22;38382;53.160;7.026;2022-11-04T06:36:50;9.20;99.90
52471;DHT22;38382;53.160;7.026;2022-11-04T06:39:16;9.20;99.90
52471;DHT22;38382;53.160;7.026;2022-11-04T06:41:41;9.20;99.90
52471;DHT22;38382;53.160;7.026;2022-11-04T06:44:07;9.20;99.90
52471;DHT22;38382;53.160;7.026;2022-11-04T06:46:38;9.20;99.90
52471;DHT22;38382;53.160;7.026;2022-11-04T06:49:06;9.20;99.90
52471;DHT22;38382;53.160;7.026;2022-11-04T06:51:32;9.20;99.90
52471;DHT22;38382;53.160;7.026;2022-11-04T06:53:58;9.20;99.90
52471;DHT22;38382;53.160;7.026;2022-11-04T06:56:24;9.20;99.90
52471;DHT22;38382;53.160;7.026;2022-11-04T06:58:51;9.20;99.90
52471;DHT22;38382;53.160;7.026;2022-11-04T07:01:19;9.20;99.90
52471;DHT22;38382;53.160;7.026;2022-11-04T07:03:56;9.20;99.90
52471;DHT22;38382;53.160;7.026;2022-11-04T07:06:22;9.30;99.90
52471;DHT22;38382;53.160;7.026;2022-11-04T07:08:50;9.30;99.90
52471;DHT22;38382;53.160;7.026;2022-11-04T07:11:17;9.30;99.90
52471;DHT22;38382;53.160;7.026;2022-11-04T07:13:43;9.40;99.90
52471;DHT22;38382;53.160;7.026;2022-11-04T07:16:09;9.40;99.90
52471;DHT22;38382;53.160;7.026;2022-11-04T07:18:35;9.40;99.90
52471;DHT22;38382;53.160;7.026;2022-11-04T07:21:02;9.30;99.90
52471;DHT22;38382;53.160;7.026;2022-11-04T07:23:27;9.30;99.90
52471;DHT22;38382;53.160;7.026;2022-11-04T07:26:02;9.30;99.90
52471;DHT22;38382;53.160;7.026;2022-11-04T07:28:28;9.30;99.90
52471;DHT22;38382;53.160;7.026;2022-11-04T07:30:55;9.30;99.90
52471;DHT22;38382;53.160;7.026;2022-11-04T07:33:23;9.30;99.90
52471;DHT22;38382;53.160;7.026;2022-11-04T07:35:48;9.20;99.90
52471;DHT22;38382;53.160;7.026;2022-11-04T07:38:14;9.20;99.90
52471;DHT22;38382;53.160;7.026;2022-11-04T07:40:40;9.30;99.90
52471;DHT22;38382;53.160;7.026;2022-11-04T07:43:05;9.30;99.90
52471;DHT22;38382;53.160;7.026;2022-11-04T07:45:32;9.20;99.90
52471;DHT22;38382;53.160;7.026;2022-11-04T07:47:57;9.20;99.90
52471;DHT22;38382;53.160;7.026;2022-11-04T07:50:23;9.30;99.90
52471;DHT22;38382;53.160;7.026;2022-11-04T07:52:49;9.20;99.90
52471;DHT22;38382;53.160;7.026;2022-11-04T07:55:16;9.30;99.90
52471;DHT22;38382;53.160;7.026;2022-11-04T07:57:44;9.20;99.90
52471;DHT22;38382;53.160;7.026;2022-11-04T08:00:10;9.20;99.90
52471;DHT22;38382;53.160;7.026;2022-11-04T08:02:36;9.20;99.90
52471;DHT22;38382;53.160;7.026;2022-11-04T08:05:02;9.10;99.90
52471;DHT22;38382;53.160;7.026;2022-11-04T08:07:31;9.10;99.90
52471;DHT22;38382;53.160;7.026;2022-11-04T08:09:57;9.20;99.90
52471;DHT22;38382;53.160;7.026;2022-11-04T08:12:23;9.10;99.90
52471;DHT22;38382;53.160;7.026;2022-11-04T08:14:49;9.10;99.90
52471;DHT22;38382;53.160;7.026;2022-11-04T08:17:15;9.10;99.90
52471;DHT22;38382;53.160;7.026;2022-11-04T08:19:41;9.10;99.90
52471;DHT22;38382;53.160;7.026;2022-11-04T08:22:07;9.10;99.90
52471;DHT22;38382;53.160;7.026;2022-11-04T08:24:33;9.20;99.90
52471;DHT22;38382;53.160;7.026;2022-11-04T08:27:00;9.20;99.90
52471;DHT22;38382;53.160;7.026;2022-11-04T08:29:26;9.20;99.90
52471;DHT22;38382;53.160;7.026;2022-11-04T08:31:51;9.20;99.90
52471;DHT22;38382;53.160;7.026;2022-11-04T08:34:17;9.30;99.90
52471;DHT22;38382;53.160;7.026;2022-11-04T08:36:44;9.30;99.90
52471;DHT22;38382;53.160;7.026;2022-11-04T08:39:10;9.30;99.90
52471;DHT22;38382;53.160;7.026;2022-11-04T08:41:37;9.70;99.90
52471;DHT22;38382;53.160;7.026;2022-11-04T08:44:06;9.50;99.90
52471;DHT22;38382;53.160;7.026;2022-11-04T08:46:35;9.50;99.90
52471;DHT22;38382;53.160;7.026;2022-11-04T08:49:02;9.60;99.90
52471;DHT22;38382;53.160;7.026;2022-11-04T08:51:31;9.60;99.90
52471;DHT22;38382;53.160;7.026;2022-11-04T08:53:58;9.70;99.90
52471;DHT22;38382;53.160;7.026;2022-11-04T08:56:27;9.80;99.90
52471;DHT22;38382;53.160;7.026;2022-11-04T08:58:53;9.80;99.90
52471;DHT22;38382;53.160;7.026;2022-11-04T09:01:20;9.90;99.90
52471;DHT22;38382;53.160;7.026;2022-11-04T09:03:47;10.00;99.90
52471;DHT22;38382;53.160;7.026;2022-11-04T09:06:18;10.00;99.90
52471;DHT22;38382;53.160;7.026;2022-11-04T09:08:44;10.20;99.90
52471;DHT22;38382;53.160;7.026;2022-11-04T09:11:12;10.20;99.90
52471;DHT22;38382;53.160;7.026;2022-11-04T09:13:38;10.30;99.90
52471;DHT22;38382;53.160;7.026;2022-11-04T09:16:05;10.50;99.90
52471;DHT22;38382;53.160;7.026;2022-11-04T09:18:30;10.40;99.90
52471;DHT22;38382;53.160;7.026;2022-11-04T09:21:00;10.60;99.90
52471;DHT22;38382;53.160;7.026;2022-11-04T09:23:26;10.60;99.90
52471;DHT22;38382;53.160;7.026;2022-11-04T09:25:52;10.80;99.90
52471;DHT22;38382;53.160;7.026;2022-11-04T09:28:20;10.90;99.90
52471;DHT22;38382;53.160;7.026;2022-11-04T09:30:45;11.00;99.90
52471;DHT22;38382;53.160;7.026;2022-11-04T09:33:11;11.00;99.90
52471;DHT22;38382;53.160;7.026;2022-11-04T09:35:37;11.00;99.90
52471;DHT22;38382;53.160;7.026;2022-11-04T09:38:02;11.10;99.90
52471;DHT22;38382;53.160;7.026;2022-11-04T09:40:29;11.20;99.90
52471;DHT22;38382;53.160;7.026;2022-11-04T09:45:31;11.40;99.90
52471;DHT22;38382;53.160;7.026;2022-11-04T09:48:02;11.60;99.90
52471;DHT22;38382;53.160;7.026;2022-11-04T09:50:32;11.80;99.90
52471;DHT22;38382;53.160;7.026;2022-11-04T09:53:07;11.80;99.90
52471;DHT22;38382;53.160;7.026;2022-11-04T09:55:42;12.00;99.90
52471;DHT22;38382;53.160;7.026;2022-11-04T09:58:12;12.10;99.90
52471;DHT22;38382;53.160;7.026;2022-11-04T10:00:41;12.30;99.90
52471;DHT22;38382;53.160;7.026;2022-11-04T10:07:24;12.40;99.90
52471;DHT22;38382;53.160;7.026;2022-11-04T10:15:02;12.70;99.90
52471;DHT22;38382;53.160;7.026;2022-11-04T10:20:50;12.90;99.90
52471;DHT22;38382;53.160;7.026;2022-11-04T10:25:52;12.70;99.90
52471;DHT22;38382;53.160;7.026;2022-11-04T10:28:26;12.70;99.90
52471;DHT22;38382;53.160;7.026;2022-11-04T10:30:54;12.50;99.90
52471;DHT22;38382;53.160;7.026;2022-11-04T10:33:37;12.50;99.90
52471;DHT22;38382;53.160;7.026;2022-11-04T10:36:09;12.40;99.90
52471;DHT22;38382;53.160;7.026;2022-11-04T10:38:41;12.40;99.90
52471;DHT22;38382;53.160;7.026;2022-11-04T10:44:10;12.30;99.90
52471;DHT22;38382;53.160;7.026;2022-11-04T10:52:08;12.30;99.90
52471;DHT22;38382;53.160;7.026;2022-11-04T10:54:52;12.30;99.90
52471;DHT22;38382;53.160;7.026;2022-11-04T10:57:21;12.40;99.90
52471;DHT22;38382;53.160;7.026;2022-11-04T10:59:58;12.50;99.90
52471;DHT22;38382;53.160;7.026;2022-11-04T11:07:49;12.70;99.90
52471;DHT22;38382;53.160;7.026;2022-11-04T11:12:57;12.90;99.90
52471;DHT22;38382;53.160;7.026;2022-11-04T11:18:18;12.90;99.90
52471;DHT22;38382;53.160;7.026;2022-11-04T11:21:14;12.80;99.90
52471;DHT22;38382;53.160;7.026;2022-11-04T11:23:43;12.90;99.90
52471;DHT22;38382;53.160;7.026;2022-11-04T11:26:13;13.00;99.90
52471;DHT22;38382;53.160;7.026;2022-11-04T11:28:54;13.00;99.90
52471;DHT22;38382;53.160;7.026;2022-11-04T11:31:37;13.00;99.90
52471;DHT22;38382;53.160;7.026;2022-11-04T11:34:13;13.00;99.90
52471;DHT22;38382;53.160;7.026;2022-11-04T11:36:40;12.90;99.90
52471;DHT22;38382;53.160;7.026;2022-11-04T11:39:16;12.80;99.90
52471;DHT22;38382;53.160;7.026;2022-11-04T11:42:07;12.90;99.90
52471;DHT22;38382;53.160;7.026;2022-11-04T11:44:50;13.20;99.90
52471;DHT22;38382;53.160;7.026;2022-11-04T11:52:35;14.60;99.90
52471;DHT22;38382;53.160;7.026;2022-11-04T11:55:26;14.80;99.90
52471;DHT22;38382;53.160;7.026;2022-11-04T11:58:21;14.70;99.90
52471;DHT22;38382;53.160;7.026;2022-11-04T12:03:47;14.10;99.90
52471;DHT22;38382;53.160;7.026;2022-11-04T12:06:23;14.00;99.90
52471;DHT22;38382;53.160;7.026;2022-11-04T12:30:24;14.30;99.90
52471;DHT22;38382;53.160;7.026;2022-11-04T12:46:20;13.20;99.90
52471;DHT22;38382;53.160;7.026;2022-11-04T12:51:42;12.40;99.90
52471;DHT22;38382;53.160;7.026;2022-11-04T12:58:06;12.10;99.90
52471;DHT22;38382;53.160;7.026;2022-11-04T13:00:14;12.40;99.90
52471;DHT22;38382;53.160;7.026;2022-11-04T13:02:48;13.20;99.90
52471;DHT22;38382;53.160;7.026;2022-11-04T13:05:37;13.80;99.90
52471;DHT22;38382;53.160;7.026;2022-11-04T13:10:47;14.10;99.90
52471;DHT22;38382;53.160;7.026;2022-11-04T13:13:17;14.50;99.90
52471;DHT22;38382;53.160;7.026;2022-11-04T13:15:50;14.90;99.90
52471;DHT22;38382;53.160;7.026;2022-11-04T13:18:22;15.10;99.90
52471;DHT22;38382;53.160;7.026;2022-11-04T13:26:31;14.90;99.90
52471;DHT22;38382;53.160;7.026;2022-11-04T13:29:06;14.70;99.90
52471;DHT22;38382;53.160;7.026;2022-11-04T13:32:04;15.00;99.90
52471;DHT22;38382;53.160;7.026;2022-11-04T13:39:54;15.00;99.90
52471;DHT22;38382;53.160;7.026;2022-11-04T13:45:08;14.50;99.90
52471;DHT22;38382;53.160;7.026;2022-11-04T13:47:57;14.30;99.90
52471;DHT22;38382;53.160;7.026;2022-11-04T13:50:37;14.00;99.90
52471;DHT22;38382;53.160;7.026;2022-11-04T13:53:05;13.90;99.90
52471;DHT22;38382;53.160;7.026;2022-11-04T13:55:34;13.80;99.90
52471;DHT22;38382;53.160;7.026;2022-11-04T13:58:05;13.70;99.90
52471;DHT22;38382;53.160;7.026;2022-11-04T14:00:34;13.50;99.90
52471;DHT22;38382;53.160;7.026;2022-11-04T14:06:02;13.20;99.90
52471;DHT22;38382;53.160;7.026;2022-11-04T14:08:28;13.10;99.90
52471;DHT22;38382;53.160;7.026;2022-11-04T14:18:35;12.50;99.90
52471;DHT22;38382;53.160;7.026;2022-11-04T14:23:33;12.40;99.90
52471;DHT22;38382;53.160;7.026;2022-11-04T14:26:11;12.30;99.90
52471;DHT22;38382;53.160;7.026;2022-11-04T14:28:41;12.30;99.90
52471;DHT22;38382;53.160;7.026;2022-11-04T14:31:09;12.20;99.90
52471;DHT22;38382;53.160;7.026;2022-11-04T14:33:55;12.10;99.90
52471;DHT22;38382;53.160;7.026;2022-11-04T14:47:25;12.00;99.90
52471;DHT22;38382;53.160;7.026;2022-11-04T14:54:57;11.70;99.90
52471;DHT22;38382;53.160;7.026;2022-11-04T14:57:29;11.70;99.90
52471;DHT22;38382;53.160;7.026;2022-11-04T14:59:55;11.60;99.90
52471;DHT22;38382;53.160;7.026;2022-11-04T15:02:27;11.60;99.90
52471;DHT22;38382;53.160;7.026;2022-11-04T15:04:58;11.50;99.90
52471;DHT22;38382;53.160;7.026;2022-11-04T15:07:36;11.50;99.90
52471;DHT22;38382;53.160;7.026;2022-11-04T15:10:25;11.50;99.90
52471;DHT22;38382;53.160;7.026;2022-11-04T15:12:58;11.40;99.90
52471;DHT22;38382;53.160;7.026;2022-11-04T15:18:19;11.30;99.90
52471;DHT22;38382;53.160;7.026;2022-11-04T15:20:47;11.20;99.90
52471;DHT22;38382;53.160;7.026;2022-11-04T15:23:16;11.10;99.90
52471;DHT22;38382;53.160;7.026;2022-11-04T15:25:46;11.10;99.90
52471;DHT22;38382;53.160;7.026;2022-11-04T15:28:27;11.00;99.90
52471;DHT22;38382;53.160;7.026;2022-11-04T15:33:36;10.90;99.90
52471;DHT22;38382;53.160;7.026;2022-11-04T15:36:02;10.90;99.90
52471;DHT22;38382;53.160;7.026;2022-11-04T15:38:28;10.80;99.90
52471;DHT22;38382;53.160;7.026;2022-11-04T15:40:55;10.80;99.90
52471;DHT22;38382;53.160;7.026;2022-11-04T15:43:43;10.80;99.90
52471;DHT22;38382;53.160;7.026;2022-11-04T15:46:16;10.70;99.90
52471;DHT22;38382;53.160;7.026;2022-11-04T15:48:59;10.60;99.90
52471;DHT22;38382;53.160;7.026;2022-11-04T15:51:27;10.50;99.90
52471;DHT22;38382;53.160;7.026;2022-11-04T15:54:01;10.40;99.90
52471;DHT22;38382;53.160;7.026;2022-11-04T15:56:55;10.30;99.90
52471;DHT22;38382;53.160;7.026;2022-11-04T15:59:27;10.20;99.90
52471;DHT22;38382;53.160;7.026;2022-11-04T16:01:53;10.00;99.90
52471;DHT22;38382;53.160;7.026;2022-11-04T16:04:22;9.90;99.90
52471;DHT22;38382;53.160;7.026;2022-11-04T16:09:53;9.80;99.90
52471;DHT22;38382;53.160;7.026;2022-11-04T16:12:26;9.70;99.90
52471;DHT22;38382;53.160;7.026;2022-11-04T16:14:54;9.70;99.90
52471;DHT22;38382;53.160;7.026;2022-11-04T16:17:21;9.60;99.90
52471;DHT22;38382;53.160;7.026;2022-11-04T16:20:15;9.60;99.90
52471;DHT22;38382;53.160;7.026;2022-11-04T16:22:42;9.40;99.90
52471;DHT22;38382;53.160;7.026;2022-11-04T16:25:18;9.40;99.90
52471;DHT22;38382;53.160;7.026;2022-11-04T16:27:45;9.40;99.90
52471;DHT22;38382;53.160;7.026;2022-11-04T16:30:19;9.40;99.90
52471;DHT22;38382;53.160;7.026;2022-11-04T16:32:47;9.30;99.90
52471;DHT22;38382;53.160;7.026;2022-11-04T16:35:24;9.30;99.90
52471;DHT22;38382;53.160;7.026;2022-11-04T16:37:51;9.30;99.90
52471;DHT22;38382;53.160;7.026;2022-11-04T16:40:18;9.30;99.90
52471;DHT22;38382;53.160;7.026;2022-11-04T16:42:45;9.40;99.90
52471;DHT22;38382;53.160;7.026;2022-11-04T16:45:29;9.30;99.90
52471;DHT22;38382;53.160;7.026;2022-11-04T16:47:55;9.50;99.90
52471;DHT22;38382;53.160;7.026;2022-11-04T16:50:22;9.20;99.90
52471;DHT22;38382;53.160;7.026;2022-11-04T16:52:51;9.50;99.90
52471;DHT22;38382;53.160;7.026;2022-11-04T16:55:18;9.10;99.90
52471;DHT22;38382;53.160;7.026;2022-11-04T16:57:45;9.10;99.90
52471;DHT22;38382;53.160;7.026;2022-11-04T17:00:21;9.10;99.90
52471;DHT22;38382;53.160;7.026;2022-11-04T17:02:47;9.10;99.90
52471;DHT22;38382;53.160;7.026;2022-11-04T17:05:14;9.10;99.90
52471;DHT22;38382;53.160;7.026;2022-11-04T17:07:40;9.10;99.90
52471;DHT22;38382;53.160;7.026;2022-11-04T17:10:26;9.10;99.90
52471;DHT22;38382;53.160;7.026;2022-11-04T17:12:52;9.00;99.90
52471;DHT22;38382;53.160;7.026;2022-11-04T17:15:18;9.00;99.90
52471;DHT22;38382;53.160;7.026;2022-11-04T17:17:44;9.10;99.90
52471;DHT22;38382;53.160;7.026;2022-11-04T17:20:12;9.00;99.90
52471;DHT22;38382;53.160;7.026;2022-11-04T17:22:38;9.00;99.90
52471;DHT22;38382;53.160;7.026;2022-11-04T17:25:18;9.00;99.90
52471;DHT22;38382;53.160;7.026;2022-11-04T17:27:44;9.00;99.90
52471;DHT22;38382;53.160;7.026;2022-11-04T17:30:10;9.00;99.90
52471;DHT22;38382;53.160;7.026;2022-11-04T17:32:37;9.00;99.90
52471;DHT22;38382;53.160;7.026;2022-11-04T17:35:03;9.00;99.90
52471;DHT22;38382;53.160;7.026;2022-11-04T17:37:29;8.90;99.90
52471;DHT22;38382;53.160;7.026;2022-11-04T17:39:55;8.80;99.90
52471;DHT22;38382;53.160;7.026;2022-11-04T17:42:20;8.80;99.90
52471;DHT22;38382;53.160;7.026;2022-11-04T17:45:05;8.80;99.90
52471;DHT22;38382;53.160;7.026;2022-11-04T17:47:34;8.70;99.90
52471;DHT22;38382;53.160;7.026;2022-11-04T17:50:00;8.70;99.90
52471;DHT22;38382;53.160;7.026;2022-11-04T17:52:26;8.70;99.90
52471;DHT22;38382;53.160;7.026;2022-11-04T17:54:52;8.70;99.90
52471;DHT22;38382;53.160;7.026;2022-11-04T17:57:17;8.70;99.90
52471;DHT22;38382;53.160;7.026;2022-11-04T17:59:43;8.60;99.90
52471;DHT22;38382;53.160;7.026;2022-11-04T18:02:09;8.60;99.90
52471;DHT22;38382;53.160;7.026;2022-11-04T18:04:35;8.60;99.90
52471;DHT22;38382;53.160;7.026;2022-11-04T18:07:01;8.60;99.90
52471;DHT22;38382;53.160;7.026;2022-11-04T18:09:28;8.50;99.90
52471;DHT22;38382;53.160;7.026;2022-11-04T18:11:54;8.50;99.90
52471;DHT22;38382;53.160;7.026;2022-11-04T18:14:38;8.50;99.90
52471;DHT22;38382;53.160;7.026;2022-11-04T18:17:04;8.50;99.90
52471;DHT22;38382;53.160;7.026;2022-11-04T18:19:30;8.40;99.90
52471;DHT22;38382;53.160;7.026;2022-11-04T18:21:56;9.10;99.90
52471;DHT22;38382;53.160;7.026;2022-11-04T18:24:22;8.80;99.90
52471;DHT22;38382;53.160;7.026;2022-11-04T18:26:48;8.20;99.90
52471;DHT22;38382;53.160;7.026;2022-11-04T18:29:14;8.30;99.90
52471;DHT22;38382;53.160;7.026;2022-11-04T18:31:41;9.00;99.90
52471;DHT22;38382;53.160;7.026;2022-11-04T18:34:10;8.20;99.90
52471;DHT22;38382;53.160;7.026;2022-11-04T18:36:37;8.10;99.90
52471;DHT22;38382;53.160;7.026;2022-11-04T18:39:05;8.10;99.90
52471;DHT22;38382;53.160;7.026;2022-11-04T18:41:32;8.10;99.90
52471;DHT22;38382;53.160;7.026;2022-11-04T18:43:57;8.10;99.90
52471;DHT22;38382;53.160;7.026;2022-11-04T18:46:24;8.00;99.90
52471;DHT22;38382;53.160;7.026;2022-11-04T18:48:50;8.00;99.90
52471;DHT22;38382;53.160;7.026;2022-11-04T18:51:19;8.00;99.90
52471;DHT22;38382;53.160;7.026;2022-11-04T18:53:46;8.00;99.90